Dewitt, Arkansas
Current Conditions -  °F | °C
As of 7:15 PM on Monday 26 Jan 2015 (Local Time) from KSGT Reporting Station
Clear Clear  
Wind Chill: 41°   Ceiling: Unl
Heat Index: 46°   Visibility: 10mi
Dew Point: 34°   Wind: 10mph
Humidity: 62%   Direction: 220°SW
Pressure: 29.99"   Gusts: NA
Location:  34.1937°N, 91.3321°W
Report Text: KSGT 270115Z AUTO 22009KT 10SM CLR 08/01 A2999 RMK AO1
Loading
Personal Weather Stations






























Interactive Weather Map New forecast layout! Learn more

10-Day Weather Forecast

Advertisements
Track Severe Weather on mobile